Time;durP1;ratioP1;P1;durP2;ratioP2;P2;SDS_P1;SDS_P2;PMS_P1;PMS_P2;Temp;Humidity;BMP_temperature;BMP_pressure;BME280_temperature;BME280_humidity;BME280_pressure;Samples;Min_cycle;Max_cycle;Signal;HPM_P1;HPM_P2
2023/12/07 00:01:50;;;;;;;13.33;7.80;;;;;3.00;101329.00;;;;5042406;28;20228;-71
2023/12/07 00:04:37;;;;;;;12.73;8.17;;;;;3.00;101322.00;;;;5043868;28;20228;-70
2023/12/07 00:07:23;;;;;;;14.37;8.63;;;;;3.00;101330.00;;;;5039457;28;20330;-71
2023/12/07 00:10:10;;;;;;;14.87;7.83;;;;;3.00;101328.00;;;;5041460;28;20233;-67
2023/12/07 00:12:57;;;;;;;16.20;8.73;;;;;3.00;101333.00;;;;5041026;28;20296;-70
2023/12/07 00:15:44;;;;;;;15.47;8.53;;;;;2.90;101334.00;;;;5044762;28;20248;-72
2023/12/07 00:18:30;;;;;;;14.37;8.40;;;;;2.80;101336.00;;;;5045005;28;20227;-74
2023/12/07 00:21:17;;;;;;;12.60;7.70;;;;;2.80;101334.00;;;;5042511;28;20240;-72
2023/12/07 00:24:03;;;;;;;11.73;7.47;;;;;2.80;101332.00;;;;5038603;28;20352;-71
2023/12/07 00:26:50;;;;;;;14.60;7.80;;;;;2.70;101336.00;;;;5046806;28;20714;-67
2023/12/07 00:29:39;;;;;;;12.77;7.73;;;;;2.70;101340.00;;;;5046006;28;20355;-70
2023/12/07 00:32:25;;;;;;;15.07;8.37;;;;;2.70;101344.00;;;;5047180;28;20236;-73
2023/12/07 00:35:12;;;;;;;12.87;8.97;;;;;2.70;101345.00;;;;5039629;28;20314;-69
2023/12/07 00:37:58;;;;;;;12.43;8.43;;;;;2.60;101356.00;;;;5040018;28;20236;-69
2023/12/07 00:40:44;;;;;;;12.67;7.97;;;;;2.70;101342.00;;;;5048823;28;20248;-69
2023/12/07 00:43:30;;;;;;;11.33;6.93;;;;;2.70;101342.00;;;;5048552;28;20232;-70
2023/12/07 00:46:21;;;;;;;11.37;7.33;;;;;2.70;101343.00;;;;5047816;28;20743;-71
2023/12/07 00:49:07;;;;;;;12.00;7.43;;;;;2.70;101345.00;;;;5046204;28;20278;-69
2023/12/07 00:51:54;;;;;;;14.87;8.73;;;;;2.70;101343.00;;;;5039666;28;20263;-71
2023/12/07 00:54:40;;;;;;;13.23;7.90;;;;;2.70;101335.00;;;;5046987;28;20382;-70
2023/12/07 00:57:26;;;;;;;16.03;8.83;;;;;2.80;101342.00;;;;5047040;28;20278;-70
2023/12/07 01:00:13;;;;;;;13.90;8.33;;;;;2.80;101340.00;;;;5050468;28;20819;-68
2023/12/07 01:03:01;;;;;;;13.07;9.13;;;;;2.80;101342.00;;;;5041132;28;20233;-69
2023/12/07 01:05:47;;;;;;;15.20;9.13;;;;;2.70;101342.00;;;;5055363;28;20232;-71
2023/12/07 01:08:34;;;;;;;13.60;8.23;;;;;2.80;101344.00;;;;5038166;28;20584;-70
2023/12/07 01:11:20;;;;;;;12.80;7.97;;;;;2.80;101344.00;;;;5048059;28;20226;-70
2023/12/07 01:14:06;;;;;;;17.80;8.70;;;;;2.80;101347.00;;;;5048130;28;20761;-73
2023/12/07 01:16:53;;;;;;;16.40;9.07;;;;;2.80;101346.00;;;;5047227;28;20610;-71
2023/12/07 01:19:41;;;;;;;14.60;8.70;;;;;2.80;101357.00;;;;5041180;28;20236;-71
2023/12/07 01:22:27;;;;;;;13.27;7.57;;;;;2.70;101358.00;;;;5046242;28;20237;-72
2023/12/07 01:25:19;;;;;;;12.43;7.90;;;;;2.80;101358.00;;;;5035827;28;20459;-71
2023/12/07 01:28:09;;;;;;;14.83;8.80;;;;;2.70;101361.00;;;;5046702;28;20240;-71
2023/12/07 01:30:56;;;;;;;15.40;9.00;;;;;2.70;101350.00;;;;5039086;28;20616;-72
2023/12/07 01:33:42;;;;;;;12.67;7.53;;;;;2.70;101364.00;;;;5039078;28;20240;-70
2023/12/07 01:36:30;;;;;;;14.23;9.03;;;;;2.70;101360.00;;;;5043490;28;20242;-69
2023/12/07 01:39:16;;;;;;;16.67;7.60;;;;;2.70;101365.00;;;;5041542;28;20531;-69
2023/12/07 01:42:03;;;;;;;13.20;8.60;;;;;2.70;101357.00;;;;5039531;28;20241;-70
2023/12/07 01:44:49;;;;;;;11.93;7.53;;;;;2.60;101364.00;;;;5044941;28;20319;-70
2023/12/07 01:47:38;;;;;;;13.67;7.57;;;;;2.60;101358.00;;;;5042785;28;20230;-73
2023/12/07 01:50:24;;;;;;;10.80;6.93;;;;;2.60;101375.00;;;;5043875;28;20264;-70
2023/12/07 01:53:13;;;;;;;12.27;8.13;;;;;2.60;101374.00;;;;5038654;28;20268;-71
2023/12/07 01:55:59;;;;;;;11.67;7.80;;;;;2.60;101376.00;;;;5037097;28;20285;-70
2023/12/07 01:58:46;;;;;;;11.30;7.53;;;;;2.50;101381.00;;;;5044509;28;20228;-71
2023/12/07 02:01:32;;;;;;;13.90;6.83;;;;;2.40;101381.00;;;;5044833;28;20722;-70
2023/12/07 02:04:19;;;;;;;10.97;7.30;;;;;2.40;101385.00;;;;5045720;28;20308;-70
2023/12/07 02:07:05;;;;;;;10.10;7.23;;;;;2.40;101380.00;;;;5042321;28;20297;-73
2023/12/07 02:09:53;;;;;;;11.33;8.23;;;;;2.40;101381.00;;;;5045620;28;20226;-69
2023/12/07 02:12:40;;;;;;;14.67;8.73;;;;;2.40;101380.00;;;;5044714;28;20257;-70
2023/12/07 02:15:27;;;;;;;16.00;8.27;;;;;2.40;101376.00;;;;5044772;28;20259;-70
2023/12/07 02:18:17;;;;;;;11.50;7.13;;;;;2.40;101385.00;;;;5039011;28;20368;-71
2023/12/07 02:21:13;;;;;;;13.43;7.83;;;;;2.40;101389.00;;;;5039178;28;20234;-70
2023/12/07 02:24:01;;;;;;;12.80;7.03;;;;;2.30;101387.00;;;;5038987;28;20765;-71
2023/12/07 02:26:55;;;;;;;12.73;7.57;;;;;2.30;101400.00;;;;5044783;28;20833;-69
2023/12/07 02:29:41;;;;;;;10.27;8.13;;;;;2.30;101396.00;;;;5043292;28;20737;-71
2023/12/07 02:32:28;;;;;;;16.20;9.23;;;;;2.40;101388.00;;;;5048487;28;20232;-73
2023/12/07 02:35:15;;;;;;;11.60;7.77;;;;;2.40;101383.00;;;;5048590;28;20707;-71
2023/12/07 02:38:02;;;;;;;9.67;7.20;;;;;2.40;101391.00;;;;5041117;28;20223;-70
2023/12/07 02:40:49;;;;;;;14.07;8.70;;;;;2.40;101399.00;;;;5035938;28;20243;-71
2023/12/07 02:43:37;;;;;;;11.80;7.57;;;;;2.50;101398.00;;;;5037251;28;20613;-68
2023/12/07 02:46:23;;;;;;;11.37;6.40;;;;;2.40;101392.00;;;;5045124;28;20232;-71
2023/12/07 02:49:10;;;;;;;10.53;8.03;;;;;2.40;101399.00;;;;5038369;28;20290;-70
2023/12/07 02:51:56;;;;;;;12.13;8.33;;;;;2.40;101401.00;;;;5045167;28;20225;-71
2023/12/07 02:54:43;;;;;;;15.30;9.07;;;;;2.40;101398.00;;;;5036405;28;20286;-70
2023/12/07 02:57:33;;;;;;;12.13;8.07;;;;;2.40;101396.00;;;;5044726;28;20293;-71
2023/12/07 03:00:21;;;;;;;12.17;7.13;;;;;2.30;101398.00;;;;5036121;28;20228;-70
2023/12/07 03:03:08;;;;;;;12.23;8.10;;;;;2.30;101393.00;;;;5044003;28;20274;-70
2023/12/07 03:05:54;;;;;;;17.93;7.57;;;;;2.40;101402.00;;;;5041878;28;20324;-69
2023/12/07 03:08:40;;;;;;;11.23;7.27;;;;;2.40;101396.00;;;;5038826;28;20237;-71
2023/12/07 03:11:27;;;;;;;13.60;8.53;;;;;2.40;101391.00;;;;5044395;28;20244;-70
2023/12/07 03:14:13;;;;;;;14.33;8.47;;;;;2.40;101397.00;;;;5034122;28;20249;-69
2023/12/07 03:17:01;;;;;;;12.20;8.07;;;;;2.40;101392.00;;;;5039775;28;20230;-69
2023/12/07 03:19:47;;;;;;;20.13;8.47;;;;;2.40;101384.00;;;;5043586;28;20267;-71
2023/12/07 03:22:34;;;;;;;12.07;7.37;;;;;2.40;101384.00;;;;5041349;28;20652;-70
2023/12/07 03:25:21;;;;;;;18.63;8.73;;;;;2.40;101379.00;;;;5042536;28;20730;-70
2023/12/07 03:28:07;;;;;;;15.87;8.90;;;;;2.40;101393.00;;;;5044176;28;20360;-70
2023/12/07 03:30:54;;;;;;;17.83;8.70;;;;;2.40;101385.00;;;;5038190;28;20242;-68
2023/12/07 03:33:43;;;;;;;13.00;8.47;;;;;2.30;101388.00;;;;5038745;28;20367;-71
2023/12/07 03:36:29;;;;;;;14.63;8.37;;;;;2.30;101392.00;;;;5039995;28;20324;-72
2023/12/07 03:39:21;;;;;;;16.83;7.20;;;;;2.30;101393.00;;;;5038578;28;20631;-71
2023/12/07 03:42:07;;;;;;;19.63;9.80;;;;;2.30;101396.00;;;;5038967;28;20223;-71
2023/12/07 03:45:14;;;;;;;15.30;9.40;;;;;2.30;101394.00;;;;5047518;28;20243;-72
2023/12/07 03:48:00;;;;;;;15.13;8.80;;;;;2.40;101404.00;;;;5047722;28;20218;-71
2023/12/07 03:50:48;;;;;;;19.50;8.40;;;;;2.30;101406.00;;;;5039700;28;20228;-71
2023/12/07 03:53:34;;;;;;;17.80;10.13;;;;;2.30;101402.00;;;;5055714;28;20792;-73
2023/12/07 03:56:25;;;;;;;18.83;9.67;;;;;2.40;101404.00;;;;5069332;28;20236;-73
2023/12/07 03:59:11;;;;;;;16.83;9.70;;;;;2.30;101400.00;;;;5060648;28;20229;-73
2023/12/07 04:01:58;;;;;;;20.83;10.07;;;;;2.30;101409.00;;;;5068411;28;20298;-73
2023/12/07 04:04:44;;;;;;;22.27;10.27;;;;;2.30;101403.00;;;;5063724;28;20256;-73
2023/12/07 04:07:32;;;;;;;16.47;9.33;;;;;2.30;101397.00;;;;5070008;28;20230;-72
2023/12/07 04:10:19;;;;;;;14.30;9.07;;;;;2.30;101404.00;;;;5069146;28;20244;-71
2023/12/07 04:13:06;;;;;;;19.27;10.00;;;;;2.30;101403.00;;;;5067935;28;20296;-73
2023/12/07 04:15:52;;;;;;;15.80;9.17;;;;;2.40;101407.00;;;;5065525;28;20240;-73
2023/12/07 04:18:38;;;;;;;14.83;8.33;;;;;2.40;101405.00;;;;5044202;28;20825;-72
2023/12/07 04:21:25;;;;;;;15.97;9.77;;;;;2.40;101406.00;;;;5053556;28;20233;-71
2023/12/07 04:24:12;;;;;;;17.63;10.70;;;;;2.30;101413.00;;;;5049940;28;20233;-71
2023/12/07 04:26:59;;;;;;;13.47;8.70;;;;;2.30;101421.00;;;;5046563;28;20234;-71
2023/12/07 04:29:45;;;;;;;18.20;10.13;;;;;2.30;101430.00;;;;5039647;28;20244;-71
2023/12/07 04:32:31;;;;;;;16.60;9.67;;;;;2.40;101419.00;;;;5047778;28;20232;-71
2023/12/07 04:35:18;;;;;;;21.07;9.63;;;;;2.40;101414.00;;;;5043875;28;20229;-72
2023/12/07 04:38:04;;;;;;;25.13;10.57;;;;;2.30;101429.00;;;;5047549;28;20352;-70
2023/12/07 04:40:52;;;;;;;19.77;10.67;;;;;2.30;101437.00;;;;5039089;28;20232;-71
2023/12/07 04:43:38;;;;;;;20.87;11.83;;;;;2.40;101429.00;;;;5044162;28;20249;-69
2023/12/07 04:46:24;;;;;;;19.33;11.07;;;;;2.40;101430.00;;;;5047591;28;20233;-70
2023/12/07 04:49:10;;;;;;;18.17;10.90;;;;;2.40;101436.00;;;;5044375;28;20898;-71
2023/12/07 04:51:59;;;;;;;21.63;10.53;;;;;2.40;101431.00;;;;5046777;28;20240;-72
2023/12/07 04:54:45;;;;;;;23.87;11.40;;;;;2.50;101427.00;;;;5047564;28;20611;-69
2023/12/07 04:57:34;;;;;;;20.53;10.43;;;;;2.50;101435.00;;;;5047290;28;20362;-70
2023/12/07 05:00:21;;;;;;;15.90;10.33;;;;;2.50;101429.00;;;;5043522;28;20327;-70
2023/12/07 05:03:07;;;;;;;21.00;11.20;;;;;2.40;101429.00;;;;5046849;28;20250;-70
2023/12/07 05:05:53;;;;;;;21.33;11.37;;;;;2.50;101445.00;;;;5046366;28;20229;-71
2023/12/07 05:08:40;;;;;;;16.50;10.30;;;;;2.40;101436.00;;;;5046225;28;20752;-70
2023/12/07 05:11:27;;;;;;;18.97;10.43;;;;;2.40;101435.00;;;;5040327;28;20252;-67
2023/12/07 05:14:14;;;;;;;23.43;11.80;;;;;2.60;101426.00;;;;5040288;28;20236;-73
2023/12/07 05:17:01;;;;;;;26.83;13.00;;;;;2.60;101437.00;;;;5046465;28;20240;-70
2023/12/07 05:19:47;;;;;;;21.10;10.97;;;;;2.60;101428.00;;;;5042937;28;20228;-69
2023/12/07 05:22:34;;;;;;;28.30;11.97;;;;;2.60;101443.00;;;;5046834;28;20247;-71
2023/12/07 05:25:20;;;;;;;21.37;11.23;;;;;2.60;101449.00;;;;5046186;28;20230;-74
2023/12/07 05:28:07;;;;;;;17.87;10.30;;;;;2.60;101438.00;;;;5046286;28;20299;-72
2023/12/07 05:30:56;;;;;;;23.40;9.73;;;;;2.60;101432.00;;;;5045978;28;20232;-70
2023/12/07 05:33:44;;;;;;;17.40;9.70;;;;;2.60;101436.00;;;;5043194;28;20227;-70
2023/12/07 05:36:30;;;;;;;16.37;9.60;;;;;2.60;101437.00;;;;5044990;28;20287;-70
2023/12/07 05:39:17;;;;;;;21.87;11.47;;;;;2.60;101442.00;;;;5033189;28;20598;-71
2023/12/07 05:42:05;;;;;;;23.70;12.63;;;;;2.70;101431.00;;;;5034106;28;20237;-71
2023/12/07 05:44:51;;;;;;;19.20;10.13;;;;;2.70;101439.00;;;;5045809;28;20359;-69
2023/12/07 05:47:39;;;;;;;25.03;11.63;;;;;2.70;101441.00;;;;5040197;28;20361;-70
2023/12/07 05:50:25;;;;;;;24.07;9.83;;;;;2.80;101440.00;;;;5047942;28;20300;-70
2023/12/07 05:53:11;;;;;;;24.03;10.53;;;;;2.80;101426.00;;;;5037785;28;20745;-70
2023/12/07 05:55:58;;;;;;;27.47;10.40;;;;;2.80;101424.00;;;;5040524;28;20729;-70
2023/12/07 05:58:48;;;;;;;17.67;8.77;;;;;2.80;101435.00;;;;5045566;28;20229;-71
2023/12/07 06:01:34;;;;;;;38.60;12.93;;;;;2.80;101431.00;;;;5043009;28;20243;-72
2023/12/07 06:04:23;;;;;;;26.70;9.50;;;;;2.80;101418.00;;;;5045296;28;20219;-73
2023/12/07 06:07:09;;;;;;;21.77;10.07;;;;;2.90;101431.00;;;;5044685;28;21020;-71
2023/12/07 06:09:55;;;;;;;18.47;10.53;;;;;2.90;101427.00;;;;5045558;28;20226;-71
2023/12/07 06:12:42;;;;;;;25.50;12.93;;;;;3.00;101426.00;;;;5045605;28;20834;-70
2023/12/07 06:15:28;;;;;;;24.33;11.13;;;;;2.90;101422.00;;;;5039060;28;20244;-68
2023/12/07 06:18:15;;;;;;;28.50;11.67;;;;;3.00;101425.00;;;;5044564;28;20256;-70
2023/12/07 06:21:07;;;;;;;25.40;10.07;;;;;3.00;101429.00;;;;5044708;28;20242;-69
2023/12/07 06:23:53;;;;;;;28.83;11.17;;;;;3.00;101422.00;;;;5044100;28;20236;-70
2023/12/07 06:26:40;;;;;;;20.13;9.40;;;;;3.00;101418.00;;;;5044494;28;20243;-71
2023/12/07 06:29:26;;;;;;;26.80;9.10;;;;;3.00;101424.00;;;;5040210;28;20236;-69
2023/12/07 06:32:16;;;;;;;29.00;10.40;;;;;3.00;101417.00;;;;5044319;28;20237;-71
2023/12/07 06:35:04;;;;;;;22.97;10.33;;;;;3.00;101418.00;;;;5043813;28;20260;-72
2023/12/07 06:37:51;;;;;;;29.60;12.67;;;;;2.90;101410.00;;;;5029825;28;20251;-73
2023/12/07 06:40:38;;;;;;;22.10;10.63;;;;;2.90;101417.00;;;;5027580;28;20231;-74
2023/12/07 06:43:24;;;;;;;25.77;11.23;;;;;2.90;101416.00;;;;5018468;28;20299;-73
2023/12/07 06:46:11;;;;;;;29.93;11.17;;;;;2.80;101415.00;;;;5040998;28;20840;-75
2023/12/07 06:48:58;;;;;;;32.97;10.17;;;;;2.80;101416.00;;;;5040711;28;20221;-73
2023/12/07 06:51:44;;;;;;;31.97;12.53;;;;;2.70;101424.00;;;;5045150;28;20735;-73
2023/12/07 06:54:31;;;;;;;30.30;9.27;;;;;2.70;101425.00;;;;5034667;28;20276;-73
2023/12/07 06:57:18;;;;;;;26.43;8.53;;;;;2.70;101423.00;;;;5044554;28;20617;-74
2023/12/07 07:00:10;;;;;;;23.57;9.73;;;;;2.80;101427.00;;;;5042868;28;20228;-72
2023/12/07 07:02:57;;;;;;;21.27;9.70;;;;;2.80;101429.00;;;;5035408;28;20237;-73
2023/12/07 07:05:43;;;;;;;14.70;8.27;;;;;2.70;101429.00;;;;5022939;28;20236;-71
2023/12/07 07:08:29;;;;;;;19.73;9.70;;;;;2.70;101431.00;;;;5036441;28;20228;-75
2023/12/07 07:11:17;;;;;;;22.33;8.70;;;;;2.70;101423.00;;;;5042976;28;20227;-72
2023/12/07 07:14:03;;;;;;;15.27;8.63;;;;;2.70;101425.00;;;;5044751;28;20301;-71
2023/12/07 07:16:49;;;;;;;21.70;8.67;;;;;2.70;101422.00;;;;5032868;28;20772;-72
2023/12/07 07:19:36;;;;;;;25.07;10.00;;;;;2.70;101416.00;;;;5035497;28;20236;-74
2023/12/07 07:22:22;;;;;;;20.83;9.37;;;;;2.70;101411.00;;;;5042474;28;20232;-74
2023/12/07 07:25:09;;;;;;;18.73;7.27;;;;;2.70;101406.00;;;;5041953;28;20316;-74
2023/12/07 07:27:57;;;;;;;16.07;6.57;;;;;2.70;101419.00;;;;5043482;28;20375;-74
2023/12/07 07:30:43;;;;;;;21.73;7.83;;;;;2.60;101424.00;;;;5027592;28;20312;-74
2023/12/07 07:33:29;;;;;;;21.27;8.07;;;;;2.60;101417.00;;;;5040200;28;20223;-74
2023/12/07 07:36:16;;;;;;;20.07;8.90;;;;;2.50;101420.00;;;;5040972;28;20239;-75
2023/12/07 07:39:02;;;;;;;16.83;6.63;;;;;2.40;101431.00;;;;5038755;28;20234;-75
2023/12/07 07:41:48;;;;;;;15.50;7.77;;;;;2.40;101427.00;;;;5036215;28;20305;-73
2023/12/07 07:44:36;;;;;;;14.17;8.03;;;;;2.30;101425.00;;;;5034691;28;20224;-74
2023/12/07 07:47:22;;;;;;;16.50;7.23;;;;;2.30;101412.00;;;;5041412;28;20793;-72
2023/12/07 07:50:11;;;;;;;19.10;7.90;;;;;2.30;101412.00;;;;5041059;28;20845;-74
2023/12/07 07:52:57;;;;;;;11.50;7.33;;;;;2.30;101404.00;;;;5039469;28;20753;-73
2023/12/07 07:55:44;;;;;;;14.37;8.37;;;;;2.20;101414.00;;;;5024943;28;20236;-73
2023/12/07 07:58:30;;;;;;;17.10;8.50;;;;;2.20;101430.00;;;;5046793;28;20232;-73
2023/12/07 08:01:18;;;;;;;18.03;7.73;;;;;2.20;101415.00;;;;5037506;28;20248;-72
2023/12/07 08:04:04;;;;;;;12.60;7.37;;;;;2.20;101423.00;;;;5042607;28;20746;-74
2023/12/07 08:06:50;;;;;;;15.80;7.13;;;;;2.20;101419.00;;;;5043415;28;20715;-75
2023/12/07 08:09:37;;;;;;;14.50;7.27;;;;;2.20;101408.00;;;;5034942;28;20219;-74
2023/12/07 08:12:23;;;;;;;17.43;8.87;;;;;2.20;101430.00;;;;5041031;28;20639;-74
2023/12/07 08:15:10;;;;;;;15.67;7.37;;;;;2.20;101408.00;;;;5041699;28;20907;-74
2023/12/07 08:17:58;;;;;;;16.17;7.77;;;;;2.20;101413.00;;;;5042789;28;20339;-73
2023/12/07 08:20:46;;;;;;;11.67;6.73;;;;;2.20;101410.00;;;;5032759;28;20227;-73
2023/12/07 08:23:33;;;;;;;11.53;6.87;;;;;2.20;101423.00;;;;5035641;28;20354;-75
2023/12/07 08:26:19;;;;;;;12.67;7.10;;;;;2.30;101426.00;;;;5042897;28;20364;-71
2023/12/07 08:29:06;;;;;;;12.80;6.83;;;;;2.30;101415.00;;;;5046877;28;20232;-74
2023/12/07 08:31:55;;;;;;;13.43;8.17;;;;;2.30;101411.00;;;;5044151;28;20232;-73
2023/12/07 08:34:44;;;;;;;13.03;6.30;;;;;2.30;101427.00;;;;5047980;28;20235;-73
2023/12/07 08:37:30;;;;;;;16.50;9.17;;;;;2.40;101430.00;;;;5045334;28;20349;-73
2023/12/07 08:40:17;;;;;;;14.77;7.30;;;;;2.40;101423.00;;;;5049585;28;20612;-73
2023/12/07 08:43:05;;;;;;;15.90;8.97;;;;;2.50;101435.00;;;;5037100;28;20236;-74
2023/12/07 08:45:51;;;;;;;18.50;8.33;;;;;2.50;101426.00;;;;5043607;28;20294;-73
2023/12/07 08:48:43;;;;;;;17.87;7.90;;;;;2.50;101425.00;;;;5044362;28;20298;-74
2023/12/07 08:51:31;;;;;;;17.60;7.93;;;;;2.40;101434.00;;;;5036530;28;20716;-71
2023/12/07 08:54:17;;;;;;;17.47;9.07;;;;;2.50;101430.00;;;;5043844;28;20229;-73
2023/12/07 08:57:04;;;;;;;18.17;8.10;;;;;2.50;101446.00;;;;5044521;28;20740;-74
2023/12/07 08:59:50;;;;;;;14.83;8.27;;;;;2.60;101421.00;;;;5048995;28;20235;-73
2023/12/07 09:02:37;;;;;;;22.53;9.43;;;;;2.50;101434.00;;;;5033195;28;20258;-74
2023/12/07 09:05:33;;;;;;;17.33;8.10;;;;;2.60;101443.00;;;;5043332;28;21176;-75
2023/12/07 09:08:20;;;;;;;16.87;7.20;;;;;2.60;101445.00;;;;5041188;28;20226;-73
2023/12/07 09:11:07;;;;;;;20.17;8.93;;;;;2.60;101442.00;;;;5042994;28;20252;-74
2023/12/07 09:13:53;;;;;;;14.37;8.00;;;;;2.70;101442.00;;;;5041962;28;20607;-72
2023/12/07 09:16:44;;;;;;;26.17;9.40;;;;;2.70;101446.00;;;;5044227;28;20226;-76
2023/12/07 09:19:30;;;;;;;19.80;9.23;;;;;2.70;101443.00;;;;5046607;28;20234;-73
2023/12/07 09:22:16;;;;;;;16.07;8.73;;;;;2.80;101438.00;;;;5047120;28;20258;-74
2023/12/07 09:25:10;;;;;;;20.03;8.57;;;;;2.80;101438.00;;;;5043819;28;20230;-73
2023/12/07 09:27:58;;;;;;;18.50;8.33;;;;;2.80;101441.00;;;;5039915;28;20255;-74
2023/12/07 09:30:44;;;;;;;19.70;9.10;;;;;2.90;101440.00;;;;5031253;28;20223;-73
2023/12/07 09:33:30;;;;;;;10.73;6.77;;;;;3.00;101445.00;;;;5046221;28;20236;-72
2023/12/07 09:36:18;;;;;;;20.77;9.63;;;;;3.10;101438.00;;;;5043145;28;20300;-73
2023/12/07 09:39:04;;;;;;;22.90;10.17;;;;;3.20;101441.00;;;;5048263;28;20245;-75
2023/12/07 09:41:52;;;;;;;17.67;9.67;;;;;3.30;101430.00;;;;5054337;28;20236;-73
2023/12/07 09:44:39;;;;;;;19.50;10.33;;;;;3.50;101434.00;;;;5044904;28;20291;-73
2023/12/07 09:47:27;;;;;;;20.13;9.10;;;;;3.50;101440.00;;;;5042172;28;20240;-71
2023/12/07 09:50:25;;;;;;;19.97;9.57;;;;;3.60;101439.00;;;;5042433;28;20228;-74
2023/12/07 09:53:12;;;;;;;19.47;9.57;;;;;3.70;101422.00;;;;5046260;28;20231;-73
2023/12/07 09:55:58;;;;;;;21.77;11.03;;;;;3.70;101425.00;;;;5048275;28;20593;-73
2023/12/07 09:58:46;;;;;;;25.87;9.13;;;;;3.80;101410.00;;;;5048201;28;20844;-73
2023/12/07 10:01:34;;;;;;;22.67;10.73;;;;;3.90;101417.00;;;;5041919;28;20232;-75
2023/12/07 10:04:25;;;;;;;21.00;10.70;;;;;4.00;101421.00;;;;5045768;28;20725;-73
2023/12/07 10:07:12;;;;;;;23.17;10.37;;;;;4.20;101407.00;;;;5042475;28;20730;-74
2023/12/07 10:09:58;;;;;;;25.07;11.07;;;;;4.20;101407.00;;;;5041233;28;20278;-75
2023/12/07 10:12:47;;;;;;;23.03;9.97;;;;;4.20;101403.00;;;;5038810;28;20591;-73
2023/12/07 10:15:35;;;;;;;23.40;11.50;;;;;4.30;101402.00;;;;5044338;28;20658;-73
2023/12/07 10:18:24;;;;;;;25.47;11.37;;;;;4.30;101402.00;;;;5041033;28;20260;-73
2023/12/07 10:21:10;;;;;;;17.77;9.53;;;;;4.50;101396.00;;;;5043248;28;20898;-72
2023/12/07 10:23:57;;;;;;;19.27;10.53;;;;;4.50;101384.00;;;;5041948;28;20228;-73
2023/12/07 10:26:45;;;;;;;27.97;11.03;;;;;4.50;101388.00;;;;5048550;28;20780;-74
2023/12/07 10:29:31;;;;;;;23.07;9.17;;;;;4.60;101389.00;;;;5042538;28;20226;-73
2023/12/07 10:32:22;;;;;;;21.60;11.07;;;;;4.70;101372.00;;;;5040975;28;20367;-72
2023/12/07 10:35:10;;;;;;;24.00;11.57;;;;;4.70;101362.00;;;;5049628;28;20301;-73
2023/12/07 10:37:56;;;;;;;19.67;9.73;;;;;4.90;101361.00;;;;5028936;28;20232;-72
2023/12/07 10:40:43;;;;;;;21.73;10.50;;;;;4.90;101355.00;;;;5029167;28;20359;-72
2023/12/07 10:43:30;;;;;;;21.27;11.57;;;;;4.90;101362.00;;;;5037771;28;20228;-74
2023/12/07 10:46:17;;;;;;;24.70;11.13;;;;;5.00;101357.00;;;;5045057;28;20225;-73
2023/12/07 10:49:11;;;;;;;19.27;9.87;;;;;5.10;101357.00;;;;5041752;28;20255;-73
2023/12/07 10:52:15;;;;;;;20.40;10.33;;;;;5.10;101349.00;;;;5042306;28;20239;-73
2023/12/07 10:55:04;;;;;;;23.60;8.93;;;;;5.20;101339.00;;;;5040025;28;20302;-74
2023/12/07 10:57:53;;;;;;;20.57;9.90;;;;;5.30;101336.00;;;;5031953;28;20255;-74
2023/12/07 11:00:46;;;;;;;19.37;9.53;;;;;5.30;101337.00;;;;5011829;28;20225;-75
2023/12/07 11:03:33;;;;;;;19.43;10.10;;;;;5.30;101322.00;;;;5041497;28;21030;-74
2023/12/07 11:06:21;;;;;;;18.13;9.93;;;;;5.40;101318.00;;;;5043648;28;20228;-72
2023/12/07 11:09:10;;;;;;;20.60;10.53;;;;;5.40;101304.00;;;;5041272;28;20232;-74
2023/12/07 11:12:07;;;;;;;16.47;9.60;;;;;5.50;101300.00;;;;5036428;28;20237;-72
2023/12/07 11:14:54;;;;;;;21.83;10.70;;;;;5.60;101313.00;;;;5040037;28;20248;-73
2023/12/07 11:18:03;;;;;;;18.77;9.13;;;;;5.60;101306.00;;;;5043059;28;20225;-73
2023/12/07 11:20:51;;;;;;;21.13;9.20;;;;;5.70;101308.00;;;;5030284;28;20670;-73
2023/12/07 11:23:40;;;;;;;19.87;8.93;;;;;5.80;101286.00;;;;5040484;28;20252;-73
2023/12/07 11:26:27;;;;;;;18.83;8.77;;;;;5.90;101286.00;;;;5044570;28;20696;-73
2023/12/07 11:29:13;;;;;;;18.67;9.47;;;;;5.90;101279.00;;;;5036237;28;20225;-74
2023/12/07 11:32:06;;;;;;;16.40;8.87;;;;;6.00;101279.00;;;;5037746;28;20605;-73
2023/12/07 11:35:06;;;;;;;16.40;9.30;;;;;6.00;101283.00;;;;5041628;28;20221;-74
2023/12/07 11:38:05;;;;;;;21.50;8.30;;;;;6.00;101267.00;;;;5038529;28;20773;-73
2023/12/07 11:40:55;;;;;;;19.03;8.73;;;;;5.90;101273.00;;;;5041737;28;20336;-77
2023/12/07 11:43:43;;;;;;;25.37;8.37;;;;;5.90;101261.00;;;;5042928;28;20230;-73
2023/12/07 11:46:30;;;;;;;16.33;8.50;;;;;6.00;101269.00;;;;5041576;28;20349;-75
2023/12/07 11:49:17;;;;;;;15.07;7.80;;;;;5.90;101251.00;;;;5042421;28;20251;-76
2023/12/07 11:52:15;;;;;;;16.77;8.03;;;;;6.00;101249.00;;;;5047416;28;20239;-73
2023/12/07 11:55:01;;;;;;;14.67;7.60;;;;;6.00;101237.00;;;;5030691;28;20224;-73
2023/12/07 11:57:51;;;;;;;17.33;8.10;;;;;6.20;101230.00;;;;5040257;28;20328;-76
2023/12/07 12:00:37;;;;;;;15.03;8.03;;;;;6.40;101218.00;;;;5041645;28;20236;-73
2023/12/07 12:03:24;;;;;;;14.00;6.77;;;;;6.60;101219.00;;;;5048100;28;20351;-73
2023/12/07 12:06:11;;;;;;;14.57;6.57;;;;;6.60;101217.00;;;;5036824;28;20352;-73
2023/12/07 12:08:58;;;;;;;15.80;8.07;;;;;6.60;101220.00;;;;5048328;28;20232;-74
2023/12/07 12:11:46;;;;;;;14.90;7.23;;;;;6.60;101218.00;;;;5046480;28;20228;-76
2023/12/07 12:14:34;;;;;;;15.23;6.97;;;;;6.60;101208.00;;;;5047454;28;20255;-75
2023/12/07 12:17:20;;;;;;;12.57;6.57;;;;;6.60;101198.00;;;;5045057;28;20303;-73
2023/12/07 12:20:07;;;;;;;11.10;6.53;;;;;6.70;101207.00;;;;5041406;28;20236;-76
2023/12/07 12:22:54;;;;;;;9.70;5.93;;;;;6.70;101197.00;;;;5049706;28;20313;-73
2023/12/07 12:25:41;;;;;;;11.93;6.33;;;;;6.50;101198.00;;;;5040268;28;20294;-74
2023/12/07 12:28:27;;;;;;;11.97;5.53;;;;;6.40;101194.00;;;;5043987;28;20304;-75
2023/12/07 12:31:15;;;;;;;14.40;6.80;;;;;6.30;101193.00;;;;5045466;28;20240;-74
2023/12/07 12:34:01;;;;;;;8.93;4.73;;;;;6.30;101185.00;;;;5047607;28;21048;-74
2023/12/07 12:36:56;;;;;;;10.77;5.87;;;;;6.30;101185.00;;;;5046565;28;20229;-74
2023/12/07 12:39:43;;;;;;;9.47;5.63;;;;;6.30;101190.00;;;;5046365;28;20320;-75
2023/12/07 12:42:29;;;;;;;11.87;5.73;;;;;6.20;101186.00;;;;5046957;28;20248;-75
2023/12/07 12:45:16;;;;;;;15.10;5.47;;;;;6.20;101185.00;;;;5047067;28;20237;-74
2023/12/07 12:48:05;;;;;;;12.13;5.37;;;;;6.20;101171.00;;;;5044242;28;20240;-75
2023/12/07 12:50:52;;;;;;;8.20;5.27;;;;;6.20;101179.00;;;;5046424;28;20220;-74
2023/12/07 12:53:43;;;;;;;8.67;5.37;;;;;6.00;101171.00;;;;5043813;28;20350;-73
2023/12/07 12:56:30;;;;;;;8.50;4.40;;;;;6.10;101167.00;;;;5044351;28;20241;-74
2023/12/07 12:59:17;;;;;;;9.03;5.00;;;;;6.10;101169.00;;;;5041070;28;20240;-75
2023/12/07 13:02:04;;;;;;;14.60;5.10;;;;;6.10;101163.00;;;;5044586;28;20276;-75
2023/12/07 13:04:53;;;;;;;7.70;4.47;;;;;6.10;101158.00;;;;5048573;28;20760;-77
2023/12/07 13:07:40;;;;;;;8.27;4.33;;;;;6.00;101153.00;;;;5049744;28;20229;-74
2023/12/07 13:10:26;;;;;;;9.77;3.90;;;;;5.80;101155.00;;;;5042003;28;20232;-77
2023/12/07 13:13:12;;;;;;;8.47;3.57;;;;;5.70;101152.00;;;;5038866;28;20696;-77
2023/12/07 13:15:58;;;;;;;7.63;3.80;;;;;5.60;101141.00;;;;5040589;28;20223;-73
2023/12/07 13:18:44;;;;;;;7.97;4.67;;;;;5.50;101135.00;;;;5048569;28;20239;-75
2023/12/07 13:21:32;;;;;;;7.87;4.53;;;;;5.50;101130.00;;;;5045582;28;20248;-74
2023/12/07 13:24:18;;;;;;;7.57;3.90;;;;;5.50;101133.00;;;;5040973;28;20231;-76
2023/12/07 13:27:05;;;;;;;5.40;3.53;;;;;5.50;101138.00;;;;5038746;28;20627;-74
2023/12/07 13:29:52;;;;;;;6.80;4.27;;;;;5.30;101139.00;;;;5044499;28;20271;-74
2023/12/07 13:32:38;;;;;;;7.13;3.77;;;;;5.30;101134.00;;;;5040580;28;20228;-74
2023/12/07 13:35:24;;;;;;;16.47;4.90;;;;;5.30;101129.00;;;;5038399;28;20353;-75
2023/12/07 13:38:12;;;;;;;6.50;4.50;;;;;5.30;101132.00;;;;5024192;28;20750;-74
2023/12/07 13:40:59;;;;;;;7.43;4.17;;;;;5.20;101142.00;;;;5031742;28;20750;-73
2023/12/07 13:43:48;;;;;;;4.60;3.20;;;;;5.20;101148.00;;;;5030352;28;20245;-73
2023/12/07 13:46:34;;;;;;;7.30;4.00;;;;;5.20;101154.00;;;;5046085;28;20230;-74